Terminal Aerodrome Forecast
Issued by NWS

Home | Current Version | Previous Version | Text Only | Print | Product List | Glossary On
Versions: 1 2 3 4 5 6 7 8 9 10 11 12 13 14 15 16 17
000
FTUS46 KLOX 281600 AAC
TAFOXR
TAF AMD
KOXR 281648Z 2817/2912 18005KT 5SM HZ SCT004
     FM281800 21007KT 6SM HZ SCT005
     FM282000 27012KT P6SM SKC
     FM290300 VRB03KT P6SM SKC
     FM290900 VRB03KT 3SM BR OVC006
     FM291100 VRB03KT 1SM BR OVC004=

USA.gov is the U.S. government's official web portal to all federal, state and local government web resources and services.